Time;durP1;ratioP1;P1;durP2;ratioP2;P2;SDS_P1;SDS_P2;PMS_P1;PMS_P2;Temp;Humidity;BMP_temperature;BMP_pressure;BME280_temperature;BME280_humidity;BME280_pressure;Samples;Min_cycle;Max_cycle;Signal;HPM_P1;HPM_P2
2023/03/14 00:00:54;;;;;;;7.78;2.17;;;14.00;72.40;;;;;;5094732;28;20020;-62
2023/03/14 00:03:20;;;;;;;9.98;2.70;;;14.00;72.50;;;;;;5092228;28;20357;-62
2023/03/14 00:05:46;;;;;;;6.47;1.98;;;14.00;72.50;;;;;;5096037;28;20514;-61
2023/03/14 00:08:12;;;;;;;6.95;1.73;;;14.00;72.40;;;;;;5094718;28;20377;-61
2023/03/14 00:10:38;;;;;;;8.60;2.75;;;14.00;72.40;;;;;;5108657;28;20036;-61
2023/03/14 00:13:04;;;;;;;8.13;2.08;;;14.00;72.40;;;;;;5092827;28;20127;-61
2023/03/14 00:15:29;;;;;;;8.30;2.67;;;14.00;72.40;;;;;;5095636;28;20415;-61
2023/03/14 00:17:55;;;;;;;7.60;2.95;;;14.00;72.40;;;;;;5093613;28;20025;-62
2023/03/14 00:20:21;;;;;;;8.77;2.30;;;14.00;72.40;;;;;;5123211;27;20348;-62
2023/03/14 00:22:47;;;;;;;10.20;2.22;;;14.00;72.90;;;;;;5092764;28;20441;-61
2023/03/14 00:25:13;;;;;;;6.78;2.20;;;13.90;72.60;;;;;;5092942;28;20408;-62
2023/03/14 00:27:38;;;;;;;7.13;2.28;;;13.90;72.70;;;;;;5094102;28;20314;-62
2023/03/14 00:30:07;;;;;;;4.90;1.80;;;13.90;72.90;;;;;;5094281;28;20451;-61
2023/03/14 00:32:33;;;;;;;6.32;1.90;;;13.80;73.00;;;;;;5094597;28;20590;-61
2023/03/14 00:35:00;;;;;;;5.85;1.92;;;13.80;73.10;;;;;;5091524;28;20369;-61
2023/03/14 00:37:27;;;;;;;7.00;2.20;;;13.80;73.20;;;;;;5094751;28;20119;-61
2023/03/14 00:39:52;;;;;;;8.15;2.35;;;13.80;73.40;;;;;;5102838;28;20348;-61
2023/03/14 00:42:18;;;;;;;5.45;1.58;;;13.70;73.30;;;;;;5094185;28;20054;-61
2023/03/14 00:44:44;;;;;;;4.82;1.50;;;13.70;73.20;;;;;;5087097;28;20445;-62
2023/03/14 00:47:09;;;;;;;6.00;1.67;;;13.70;73.10;;;;;;5085768;28;20037;-62
2023/03/14 00:49:35;;;;;;;5.68;1.90;;;13.70;73.10;;;;;;5095113;28;20028;-62
2023/03/14 00:52:01;;;;;;;5.20;1.73;;;13.60;73.00;;;;;;5094729;28;20519;-62
2023/03/14 00:54:27;;;;;;;5.45;1.40;;;13.60;72.90;;;;;;5089211;28;20028;-61
2023/03/14 00:56:53;;;;;;;4.97;1.40;;;13.60;72.80;;;;;;5093833;28;20024;-61
2023/03/14 00:59:19;;;;;;;4.20;1.25;;;13.60;72.70;;;;;;5094483;28;20028;-62
2023/03/14 01:01:45;;;;;;;5.68;1.67;;;13.60;72.70;;;;;;5093978;28;20016;-62
2023/03/14 01:04:12;;;;;;;5.90;1.50;;;13.60;72.50;;;;;;5092194;28;20024;-62
2023/03/14 01:06:38;;;;;;;4.40;1.50;;;13.50;72.30;;;;;;5100279;28;20517;-61
2023/03/14 01:09:04;;;;;;;4.20;1.30;;;13.50;72.30;;;;;;5093516;28;20035;-62
2023/03/14 01:11:32;;;;;;;5.70;1.70;;;13.50;72.20;;;;;;5093362;28;20036;-62
2023/03/14 01:13:59;;;;;;;5.13;1.70;;;13.50;72.20;;;;;;5093405;28;20043;-62
2023/03/14 01:16:30;;;;;;;5.45;1.42;;;13.50;72.10;;;;;;5092544;28;20040;-62
2023/03/14 01:18:55;;;;;;;5.60;1.73;;;13.50;72.10;;;;;;5094296;28;20025;-62
2023/03/14 01:21:24;;;;;;;7.50;1.75;;;13.50;72.10;;;;;;5100236;28;20024;-62
2023/03/14 01:23:51;;;;;;;6.60;2.08;;;13.50;72.00;;;;;;5092283;28;20437;-61
2023/03/14 01:26:20;;;;;;;7.53;1.80;;;13.50;72.00;;;;;;5089954;28;20115;-62
2023/03/14 01:28:47;;;;;;;5.15;1.40;;;13.50;72.00;;;;;;5094246;28;20028;-61
2023/03/14 01:31:13;;;;;;;7.05;1.92;;;13.40;71.90;;;;;;5092296;28;20032;-61
2023/03/14 01:33:39;;;;;;;8.60;1.95;;;13.50;71.80;;;;;;5092624;28;20028;-62
2023/03/14 01:36:06;;;;;;;7.10;1.83;;;13.50;71.60;;;;;;5107150;27;20058;-61
2023/03/14 01:38:34;;;;;;;5.47;1.73;;;13.40;71.50;;;;;;5103107;28;20092;-61
2023/03/14 01:41:01;;;;;;;5.97;1.60;;;13.40;71.40;;;;;;5092170;28;20460;-61
2023/03/14 01:43:27;;;;;;;4.53;1.50;;;13.40;71.30;;;;;;5093183;28;20016;-61
2023/03/14 01:46:05;;;;;;;5.03;1.70;;;13.40;71.40;;;;;;5094476;28;20445;-62
2023/03/14 01:49:01;;;;;;;7.15;1.52;;;13.40;71.30;;;;;;5092364;28;21622;-62
2023/03/14 01:51:36;;;;;;;11.50;2.20;;;13.40;71.40;;;;;;5064296;28;20460;-61
2023/03/14 01:54:11;;;;;;;8.05;1.58;;;13.30;71.30;;;;;;5093083;28;20024;-62
2023/03/14 01:56:38;;;;;;;7.82;1.55;;;13.30;71.40;;;;;;5086831;28;20436;-62
2023/03/14 01:59:07;;;;;;;6.53;1.42;;;13.30;71.50;;;;;;5093104;28;20309;-62
2023/03/14 02:01:34;;;;;;;7.95;2.20;;;13.30;71.60;;;;;;5091905;28;20020;-61
2023/03/14 02:04:03;;;;;;;6.85;1.73;;;13.30;72.00;;;;;;5092159;28;20020;-62
2023/03/14 02:06:47;;;;;;;9.77;1.73;;;13.20;72.40;;;;;;5090628;28;20024;-62
2023/03/14 02:09:13;;;;;;;6.60;1.63;;;13.20;72.90;;;;;;5075027;28;20119;-61
2023/03/14 02:11:40;;;;;;;6.70;2.08;;;13.20;73.20;;;;;;5104561;28;20040;-62
2023/03/14 02:14:24;;;;;;;7.90;2.08;;;13.10;73.60;;;;;;5106334;28;20028;-62
2023/03/14 02:17:10;;;;;;;5.90;1.65;;;13.10;74.00;;;;;;5093242;28;20020;-62
2023/03/14 02:20:23;;;;;;;6.63;1.98;;;13.00;74.10;;;;;;5079152;28;20064;-61
2023/03/14 02:22:54;;;;;;;5.97;1.75;;;13.00;74.40;;;;;;5091035;28;20016;-61
2023/03/14 02:25:32;;;;;;;8.18;2.10;;;12.90;74.50;;;;;;5104691;28;20123;-61
2023/03/14 02:28:00;;;;;;;6.38;2.00;;;12.90;74.80;;;;;;5093288;28;20383;-61
2023/03/14 02:30:29;;;;;;;6.68;1.80;;;12.90;75.00;;;;;;5094265;28;20024;-61
2023/03/14 02:33:03;;;;;;;6.45;1.80;;;12.80;75.30;;;;;;5091219;28;20028;-61
2023/03/14 02:35:40;;;;;;;7.22;2.00;;;12.80;75.40;;;;;;5092714;28;20367;-61
2023/03/14 02:38:33;;;;;;;7.78;1.83;;;12.80;75.60;;;;;;5092633;28;20077;-61
2023/03/14 02:41:02;;;;;;;9.70;2.15;;;12.80;75.80;;;;;;5090734;28;20310;-62
2023/03/14 02:43:32;;;;;;;6.93;1.52;;;12.70;75.80;;;;;;5090048;28;20023;-61
2023/03/14 02:46:03;;;;;;;7.45;1.60;;;12.70;76.00;;;;;;5092744;28;20020;-62
2023/03/14 02:48:38;;;;;;;8.32;1.80;;;12.70;76.10;;;;;;5089723;28;20119;-62
2023/03/14 02:51:04;;;;;;;8.63;1.83;;;12.70;76.20;;;;;;5092975;28;20110;-61
2023/03/14 02:53:32;;;;;;;5.68;1.35;;;12.70;76.30;;;;;;5090984;28;20504;-62
2023/03/14 02:56:02;;;;;;;4.25;1.55;;;12.70;76.40;;;;;;5101390;28;20063;-62
2023/03/14 02:58:30;;;;;;;6.18;2.38;;;12.60;76.40;;;;;;5075137;28;20027;-62
2023/03/14 03:01:04;;;;;;;7.75;1.73;;;12.60;76.40;;;;;;5095520;28;20020;-62
2023/03/14 03:03:29;;;;;;;6.68;1.80;;;12.60;76.50;;;;;;5093911;28;20441;-61
2023/03/14 03:05:57;;;;;;;6.50;1.55;;;12.60;76.50;;;;;;5091726;28;20081;-62
2023/03/14 03:08:26;;;;;;;7.60;1.90;;;12.70;76.50;;;;;;5077599;28;20031;-62
2023/03/14 03:10:52;;;;;;;6.22;1.58;;;12.60;76.50;;;;;;5096826;28;20052;-62
2023/03/14 03:13:18;;;;;;;7.40;1.60;;;12.60;76.40;;;;;;5101363;28;20193;-62
2023/03/14 03:15:48;;;;;;;6.45;1.50;;;12.60;76.40;;;;;;5094271;28;20032;-62
2023/03/14 03:18:13;;;;;;;6.03;1.30;;;12.60;76.50;;;;;;5095991;28;20453;-62
2023/03/14 03:20:41;;;;;;;10.45;2.47;;;12.60;76.60;;;;;;5074614;28;20373;-62
2023/03/14 03:23:07;;;;;;;6.35;1.73;;;12.50;76.60;;;;;;5102019;28;20024;-62
2023/03/14 03:25:33;;;;;;;5.43;1.40;;;12.60;76.60;;;;;;5095550;28;20060;-62
2023/03/14 03:28:07;;;;;;;5.15;1.92;;;12.50;76.50;;;;;;5094603;28;20077;-62
2023/03/14 03:30:40;;;;;;;7.50;1.80;;;12.50;76.60;;;;;;5094762;28;20445;-62
2023/03/14 03:33:06;;;;;;;7.88;1.80;;;12.50;76.50;;;;;;5108581;28;20016;-62
2023/03/14 03:35:33;;;;;;;7.30;2.05;;;12.60;76.60;;;;;;5074479;28;20016;-61
2023/03/14 03:38:00;;;;;;;7.93;2.85;;;12.50;76.50;;;;;;5094785;28;20456;-62
2023/03/14 03:40:26;;;;;;;8.20;2.25;;;12.50;76.40;;;;;;5094615;28;20449;-61
2023/03/14 03:42:52;;;;;;;7.78;2.25;;;12.60;76.40;;;;;;5099695;28;20467;-61
2023/03/14 03:45:18;;;;;;;8.60;2.17;;;12.60;76.30;;;;;;5092823;28;20111;-62
2023/03/14 03:47:50;;;;;;;8.93;2.25;;;12.60;76.20;;;;;;5085690;28;20020;-62
2023/03/14 03:50:16;;;;;;;8.88;1.90;;;12.60;76.20;;;;;;5093330;28;20397;-62
2023/03/14 03:52:42;;;;;;;14.50;2.15;;;12.60;76.10;;;;;;5100171;28;20034;-62
2023/03/14 03:55:08;;;;;;;8.10;2.10;;;12.60;76.10;;;;;;5098050;28;20051;-62
2023/03/14 03:57:34;;;;;;;7.47;2.35;;;12.60;76.10;;;;;;5087372;28;20032;-62
2023/03/14 03:59:59;;;;;;;7.10;2.35;;;12.60;76.00;;;;;;5091850;28;20027;-62
2023/03/14 04:02:27;;;;;;;6.05;1.63;;;12.60;75.90;;;;;;5085807;28;20025;-62
2023/03/14 04:04:52;;;;;;;8.20;1.92;;;12.60;75.90;;;;;;5100089;28;20435;-62
2023/03/14 04:07:18;;;;;;;7.07;1.95;;;12.60;75.70;;;;;;5093444;28;20073;-62
2023/03/14 04:09:44;;;;;;;7.18;2.28;;;12.60;75.70;;;;;;5093776;28;20356;-62
2023/03/14 04:12:21;;;;;;;9.68;1.90;;;12.60;75.60;;;;;;5094670;28;20488;-62
2023/03/14 04:14:58;;;;;;;7.95;2.00;;;12.60;75.50;;;;;;5097552;28;20028;-62
2023/03/14 04:17:24;;;;;;;8.40;1.90;;;12.60;75.40;;;;;;5093727;28;20034;-61
2023/03/14 04:19:51;;;;;;;7.97;2.05;;;12.60;75.40;;;;;;5070520;28;20384;-62
2023/03/14 04:22:18;;;;;;;5.32;1.70;;;12.60;75.50;;;;;;5092735;28;20032;-62
2023/03/14 04:24:48;;;;;;;8.38;2.35;;;12.60;75.40;;;;;;5098120;28;20116;-62
2023/03/14 04:27:14;;;;;;;7.25;1.92;;;12.60;75.40;;;;;;5091906;28;20068;-62
2023/03/14 04:29:42;;;;;;;9.40;2.03;;;12.60;75.40;;;;;;5083626;28;20445;-61
2023/03/14 04:32:08;;;;;;;8.07;2.22;;;12.60;75.30;;;;;;5091824;28;20050;-62
2023/03/14 04:34:37;;;;;;;8.32;1.85;;;12.60;75.30;;;;;;5092947;28;20027;-61
2023/03/14 04:37:03;;;;;;;9.68;1.92;;;12.60;75.30;;;;;;5092243;28;20452;-62
2023/03/14 04:39:34;;;;;;;;;;;12.60;75.90;;;;;;5086107;28;20017;-62
2023/03/14 04:42:25;;;;;;;6.70;1.67;;;12.60;75.20;;;;;;5092792;28;19908;-61
2023/03/14 04:44:50;;;;;;;6.50;1.98;;;12.60;75.10;;;;;;5101822;28;20022;-62
2023/03/14 04:47:18;;;;;;;7.65;1.90;;;12.60;75.00;;;;;;5104936;28;20085;-61
2023/03/14 04:49:46;;;;;;;7.13;1.70;;;12.60;75.00;;;;;;5093528;28;20089;-62
2023/03/14 04:52:14;;;;;;;10.45;2.08;;;12.60;75.00;;;;;;5091392;28;20099;-62
2023/03/14 04:54:40;;;;;;;8.70;2.10;;;12.60;74.90;;;;;;5097246;28;20359;-62
2023/03/14 04:57:06;;;;;;;4.63;1.65;;;12.60;74.90;;;;;;5096783;28;20047;-62
2023/03/14 04:59:35;;;;;;;9.13;2.03;;;12.60;74.80;;;;;;5085730;28;20032;-61
2023/03/14 05:02:15;;;;;;;9.90;1.95;;;12.60;74.70;;;;;;5092446;28;20058;-62
2023/03/14 05:05:19;;;;;;;12.38;1.67;;;12.60;74.70;;;;;;5093051;28;20028;-62
2023/03/14 05:08:17;;;;;;;6.68;1.50;;;12.60;74.60;;;;;;5078309;28;20028;-62
2023/03/14 05:11:02;;;;;;;6.07;1.63;;;12.60;74.60;;;;;;5081804;28;20058;-62
2023/03/14 05:13:56;;;;;;;7.07;1.25;;;12.60;74.60;;;;;;5091963;28;20043;-62
2023/03/14 05:16:42;;;;;;;7.70;2.05;;;12.60;74.60;;;;;;5099315;28;20028;-62
2023/03/14 05:19:28;;;;;;;5.28;1.52;;;12.60;74.60;;;;;;5087443;28;20036;-61
2023/03/14 05:22:12;;;;;;;4.90;1.00;;;12.60;74.60;;;;;;5091136;28;20031;-61
2023/03/14 05:25:10;;;;;;;4.68;1.27;;;12.50;74.60;;;;;;5086091;28;20032;-62
2023/03/14 05:27:58;;;;;;;3.53;1.17;;;12.50;74.70;;;;;;5095981;28;20040;-61
2023/03/14 05:30:37;;;;;;;6.25;1.35;;;12.50;74.70;;;;;;5090675;28;20063;-61
2023/03/14 05:33:32;;;;;;;4.65;1.10;;;12.50;74.80;;;;;;5053270;28;20033;-61
2023/03/14 05:36:16;;;;;;;5.15;1.02;;;12.50;74.80;;;;;;5096658;28;20070;-62
2023/03/14 05:39:00;;;;;;;7.32;1.50;;;12.50;74.90;;;;;;5096041;28;20165;-61
2023/03/14 05:41:55;;;;;;;4.85;1.30;;;12.50;75.00;;;;;;5079625;28;20039;-62
2023/03/14 05:44:41;;;;;;;3.88;1.13;;;12.50;75.00;;;;;;5091552;28;20021;-62
2023/03/14 05:47:25;;;;;;;4.80;1.27;;;12.50;75.10;;;;;;5087476;28;20046;-62
2023/03/14 05:50:14;;;;;;;7.22;1.20;;;12.50;75.10;;;;;;5089379;28;20376;-62
2023/03/14 05:53:13;;;;;;;6.50;1.40;;;12.50;75.30;;;;;;5088144;28;20032;-62
2023/03/14 05:56:14;;;;;;;5.95;1.48;;;12.50;75.30;;;;;;5092053;28;20039;-61
2023/03/14 05:59:03;;;;;;;7.05;1.95;;;12.40;75.40;;;;;;5048604;28;20040;-62
2023/03/14 06:01:37;;;;;;;5.32;1.48;;;12.40;75.50;;;;;;5090974;28;20452;-63
2023/03/14 06:04:14;;;;;;;3.55;1.50;;;12.40;75.60;;;;;;5089952;28;20080;-61
2023/03/14 06:06:40;;;;;;;8.13;1.85;;;12.40;75.70;;;;;;5072783;28;20107;-61
2023/03/14 06:09:07;;;;;;;6.03;1.70;;;12.40;75.80;;;;;;5091603;28;20262;-61
2023/03/14 06:11:36;;;;;;;3.33;1.27;;;12.40;75.90;;;;;;5082821;28;20045;-61
2023/03/14 06:14:03;;;;;;;7.00;1.60;;;12.40;76.00;;;;;;5074489;28;20035;-61
2023/03/14 06:16:31;;;;;;;5.00;1.67;;;12.40;76.10;;;;;;5083947;28;20032;-61
2023/03/14 06:18:58;;;;;;;5.88;1.27;;;12.30;76.20;;;;;;5091225;28;20030;-61
2023/03/14 06:21:24;;;;;;;4.63;1.55;;;12.30;76.30;;;;;;5103431;28;20020;-62
2023/03/14 06:23:51;;;;;;;6.45;1.70;;;12.30;76.50;;;;;;5094990;28;20027;-61
2023/03/14 06:26:17;;;;;;;5.47;1.70;;;12.30;76.50;;;;;;5094941;28;20027;-61
2023/03/14 06:28:43;;;;;;;6.80;1.70;;;12.30;76.70;;;;;;5095359;28;20357;-62
2023/03/14 06:31:09;;;;;;;3.47;1.35;;;12.30;76.90;;;;;;5102443;28;20027;-62
2023/03/14 06:33:43;;;;;;;4.47;1.30;;;12.30;77.00;;;;;;5075220;28;20059;-62
2023/03/14 06:36:10;;;;;;;4.65;1.80;;;12.30;77.10;;;;;;5095824;28;20028;-62
2023/03/14 06:38:38;;;;;;;6.82;1.80;;;12.30;77.20;;;;;;5075402;28;20103;-62
2023/03/14 06:41:06;;;;;;;5.53;1.70;;;12.40;77.30;;;;;;5093855;28;20068;-62
2023/03/14 06:43:39;;;;;;;7.00;1.63;;;12.40;77.40;;;;;;5094496;28;20036;-63
2023/03/14 06:46:06;;;;;;;6.95;1.60;;;12.40;77.40;;;;;;5095497;28;20028;-62
2023/03/14 06:48:34;;;;;;;4.78;1.77;;;12.40;77.50;;;;;;5076791;28;20024;-63
2023/03/14 06:51:00;;;;;;;4.85;1.63;;;12.40;77.60;;;;;;5104111;28;20032;-62
2023/03/14 06:53:26;;;;;;;4.40;1.60;;;12.40;77.60;;;;;;5092978;28;20062;-63
2023/03/14 06:55:52;;;;;;;5.97;1.73;;;12.40;77.70;;;;;;5094747;28;20063;-62
2023/03/14 06:58:19;;;;;;;5.88;1.98;;;12.40;77.80;;;;;;5094601;28;20027;-63
2023/03/14 07:00:45;;;;;;;4.10;1.88;;;12.40;77.90;;;;;;5077536;28;20035;-62
2023/03/14 07:03:14;;;;;;;5.40;2.20;;;12.40;78.10;;;;;;5093713;28;20020;-63
2023/03/14 07:05:43;;;;;;;5.38;1.67;;;12.40;78.10;;;;;;5080746;28;20078;-63
2023/03/14 07:08:09;;;;;;;7.13;2.20;;;12.40;78.20;;;;;;5088291;28;20020;-63
2023/03/14 07:10:35;;;;;;;5.18;2.20;;;12.40;78.30;;;;;;5097063;28;20279;-63
2023/03/14 07:13:01;;;;;;;4.35;1.90;;;12.50;78.40;;;;;;5094384;28;20438;-62
2023/03/14 07:15:31;;;;;;;6.80;2.15;;;12.50;78.50;;;;;;5092798;28;20047;-62
2023/03/14 07:18:01;;;;;;;5.35;2.30;;;12.50;78.50;;;;;;5107698;28;20456;-62
2023/03/14 07:20:28;;;;;;;5.90;2.25;;;12.50;78.50;;;;;;5093471;28;20035;-62
2023/03/14 07:22:54;;;;;;;7.25;2.70;;;12.50;78.60;;;;;;5094539;28;20028;-62
2023/03/14 07:25:31;;;;;;;6.90;2.55;;;12.50;78.60;;;;;;5089921;28;20036;-62
2023/03/14 07:27:58;;;;;;;6.35;2.42;;;12.50;78.80;;;;;;5094009;28;20028;-61
2023/03/14 07:30:24;;;;;;;7.10;2.40;;;12.50;78.90;;;;;;5071970;28;20445;-62
2023/03/14 07:32:50;;;;;;;7.20;2.38;;;12.50;79.00;;;;;;5094190;28;20035;-62
2023/03/14 07:35:16;;;;;;;4.72;1.90;;;12.40;79.00;;;;;;5087753;28;20029;-62
2023/03/14 07:37:41;;;;;;;4.15;1.88;;;12.40;78.80;;;;;;5089904;28;20081;-62
2023/03/14 07:40:10;;;;;;;4.97;1.85;;;12.30;78.70;;;;;;5081336;28;20036;-63
2023/03/14 07:42:36;;;;;;;5.75;2.08;;;12.30;78.80;;;;;;5102583;28;20028;-62
2023/03/14 07:45:17;;;;;;;4.45;1.88;;;12.30;78.80;;;;;;5088181;28;20023;-63
2023/03/14 07:47:42;;;;;;;4.25;1.77;;;12.30;78.70;;;;;;5095957;28;20096;-63
2023/03/14 07:50:09;;;;;;;4.57;1.77;;;12.20;78.50;;;;;;5096458;28;20020;-64
2023/03/14 07:52:35;;;;;;;4.65;1.67;;;12.20;78.50;;;;;;5093204;28;20445;-63
2023/03/14 07:55:00;;;;;;;2.28;1.10;;;12.10;78.50;;;;;;5094437;28;20028;-63
2023/03/14 07:57:26;;;;;;;5.70;1.55;;;12.10;78.40;;;;;;5091923;28;20028;-62
2023/03/14 07:59:52;;;;;;;2.42;1.00;;;12.00;78.40;;;;;;5075794;28;20023;-62
2023/03/14 08:02:20;;;;;;;2.05;0.90;;;12.00;78.20;;;;;;5092651;28;20483;-62
2023/03/14 08:04:45;;;;;;;2.38;0.80;;;12.00;78.10;;;;;;5094913;28;20017;-62
2023/03/14 08:07:11;;;;;;;5.38;1.10;;;11.90;78.00;;;;;;5090523;28;20043;-63
2023/03/14 08:09:37;;;;;;;1.50;0.80;;;11.90;78.00;;;;;;5092182;28;20028;-63
2023/03/14 08:12:03;;;;;;;2.72;0.82;;;11.80;78.00;;;;;;5092969;28;20421;-63
2023/03/14 08:14:30;;;;;;;1.35;0.75;;;11.80;77.80;;;;;;5092306;28;20032;-63
2023/03/14 08:16:56;;;;;;;0.70;0.50;;;11.70;77.80;;;;;;5090279;28;20025;-63
2023/03/14 08:19:21;;;;;;;1.60;0.88;;;11.70;77.90;;;;;;5092348;28;20111;-64
2023/03/14 08:21:47;;;;;;;3.38;1.10;;;11.60;77.80;;;;;;5090464;28;20556;-63
2023/03/14 08:24:13;;;;;;;1.42;0.70;;;11.60;77.60;;;;;;5088937;28;20058;-62
2023/03/14 08:26:39;;;;;;;3.83;1.20;;;11.60;77.70;;;;;;5091108;28;20071;-63
2023/03/14 08:29:07;;;;;;;2.03;0.95;;;11.50;77.60;;;;;;5091798;28;20440;-64
2023/03/14 08:31:34;;;;;;;1.85;0.80;;;11.60;77.60;;;;;;5093352;28;20024;-63
2023/03/14 08:34:01;;;;;;;2.67;0.98;;;11.60;78.10;;;;;;5090459;28;20032;-63
2023/03/14 08:36:27;;;;;;;2.03;0.90;;;11.60;77.30;;;;;;5090266;28;20024;-63
2023/03/14 08:38:54;;;;;;;2.10;0.90;;;11.60;77.30;;;;;;5089237;28;20361;-63
2023/03/14 08:41:19;;;;;;;2.75;0.80;;;11.70;77.10;;;;;;5094032;28;20032;-62
2023/03/14 08:43:45;;;;;;;2.53;0.93;;;11.60;77.00;;;;;;5093263;28;20023;-63
2023/03/14 08:46:11;;;;;;;2.22;0.77;;;11.60;77.10;;;;;;5094053;28;21630;-63
2023/03/14 08:48:37;;;;;;;1.08;0.70;;;11.60;76.90;;;;;;5090419;28;20055;-63
2023/03/14 08:51:14;;;;;;;3.25;0.55;;;11.60;76.80;;;;;;5093152;28;20020;-63
2023/03/14 08:53:40;;;;;;;3.75;1.13;;;11.60;76.80;;;;;;5092733;28;20028;-64
2023/03/14 08:56:06;;;;;;;5.07;0.98;;;11.50;76.50;;;;;;5092200;28;20104;-63
2023/03/14 08:58:33;;;;;;;3.70;0.90;;;11.50;76.40;;;;;;5090763;28;20028;-64
2023/03/14 09:00:59;;;;;;;6.38;1.00;;;11.40;76.10;;;;;;5093817;28;20039;-64
2023/03/14 09:03:25;;;;;;;5.95;1.25;;;11.40;75.90;;;;;;5092933;28;20016;-64
2023/03/14 09:05:52;;;;;;;7.53;1.13;;;11.30;75.60;;;;;;5090445;28;20021;-64
2023/03/14 09:08:18;;;;;;;4.53;1.38;;;11.30;75.40;;;;;;5091507;28;20419;-64
2023/03/14 09:10:44;;;;;;;3.20;1.00;;;11.30;75.30;;;;;;5093671;28;20024;-64
2023/03/14 09:13:10;;;;;;;2.13;0.77;;;11.40;75.10;;;;;;5093742;28;20139;-63
2023/03/14 09:15:36;;;;;;;7.88;1.50;;;11.50;75.00;;;;;;5092063;28;20016;-64
2023/03/14 09:18:02;;;;;;;5.50;1.65;;;11.50;74.60;;;;;;5091167;28;20031;-63
2023/03/14 09:20:27;;;;;;;5.07;1.20;;;11.50;74.50;;;;;;5074553;28;20123;-64
2023/03/14 09:22:53;;;;;;;3.65;1.40;;;11.40;74.30;;;;;;5093667;28;20626;-63
2023/03/14 09:25:19;;;;;;;3.75;1.10;;;11.40;74.20;;;;;;5090750;28;20039;-63
2023/03/14 09:27:45;;;;;;;3.28;0.85;;;11.40;74.10;;;;;;5091891;28;20020;-62
2023/03/14 09:30:11;;;;;;;3.58;0.80;;;11.30;73.90;;;;;;5093654;28;20333;-63
2023/03/14 09:32:37;;;;;;;2.03;0.80;;;11.30;73.70;;;;;;5091382;28;20020;-63
2023/03/14 09:35:03;;;;;;;3.60;1.40;;;11.30;73.50;;;;;;5090209;28;20076;-63
2023/03/14 09:37:29;;;;;;;4.22;1.02;;;11.30;73.30;;;;;;5090886;28;20110;-62
2023/03/14 09:39:55;;;;;;;3.40;0.93;;;11.30;73.10;;;;;;5092253;28;20028;-63
2023/03/14 09:42:25;;;;;;;4.32;1.15;;;11.50;72.80;;;;;;5091441;28;20016;-62
2023/03/14 09:44:59;;;;;;;2.33;0.82;;;11.60;72.20;;;;;;5092500;28;20016;-62
2023/03/14 09:47:26;;;;;;;1.35;0.55;;;11.70;71.70;;;;;;5090074;28;20340;-62
2023/03/14 09:49:52;;;;;;;3.78;1.17;;;11.70;71.50;;;;;;5088899;28;20119;-62
2023/03/14 09:52:30;;;;;;;6.20;1.00;;;11.80;71.40;;;;;;5091485;28;20045;-64
2023/03/14 09:54:59;;;;;;;4.95;1.00;;;11.90;70.80;;;;;;5091908;28;20472;-64
2023/03/14 09:57:26;;;;;;;4.97;1.10;;;12.00;70.50;;;;;;5079938;28;20036;-64
2023/03/14 09:59:58;;;;;;;1.70;0.60;;;12.10;70.80;;;;;;5080002;28;20025;-63
2023/03/14 10:02:28;;;;;;;4.13;0.88;;;12.10;69.90;;;;;;5083594;28;20028;-62
2023/03/14 10:04:54;;;;;;;3.45;0.85;;;12.10;69.90;;;;;;5072728;28;20039;-62
2023/03/14 10:07:29;;;;;;;5.15;1.17;;;12.10;69.70;;;;;;5095738;28;20376;-62
2023/03/14 10:09:55;;;;;;;4.05;1.00;;;12.10;69.30;;;;;;5083359;28;20033;-63
2023/03/14 10:12:36;;;;;;;4.03;1.33;;;12.10;69.20;;;;;;5084164;28;20058;-63
2023/03/14 10:15:06;;;;;;;6.45;1.23;;;12.10;68.70;;;;;;5078304;28;20035;-63
2023/03/14 10:17:40;;;;;;;4.13;1.10;;;12.00;68.40;;;;;;5069311;28;20092;-63
2023/03/14 10:20:06;;;;;;;6.80;1.30;;;12.00;68.30;;;;;;5089161;28;20123;-63
2023/03/14 10:22:32;;;;;;;6.47;1.30;;;12.00;68.20;;;;;;5082675;28;20035;-63
2023/03/14 10:25:07;;;;;;;4.90;1.17;;;12.00;68.00;;;;;;5088028;28;20028;-62
2023/03/14 10:27:35;;;;;;;6.40;1.30;;;12.00;67.60;;;;;;5077048;28;20353;-63
2023/03/14 10:30:07;;;;;;;8.20;1.20;;;12.00;67.50;;;;;;5089261;28;20586;-63
2023/03/14 10:32:36;;;;;;;6.32;1.58;;;12.00;67.40;;;;;;5091568;28;20075;-63
2023/03/14 10:35:14;;;;;;;6.13;1.67;;;12.00;67.50;;;;;;5084736;28;20032;-64
2023/03/14 10:38:00;;;;;;;9.45;2.38;;;12.00;67.30;;;;;;5082353;28;20035;-64
2023/03/14 10:40:33;;;;;;;10.07;2.20;;;12.00;67.00;;;;;;5092453;28;20029;-64
2023/03/14 10:43:00;;;;;;;8.05;1.75;;;12.00;67.00;;;;;;5081392;28;20024;-64
2023/03/14 10:45:42;;;;;;;6.95;1.92;;;12.00;67.00;;;;;;5096969;28;20028;-63
2023/03/14 10:48:16;;;;;;;;;;;12.10;66.90;;;;;;5079963;28;20033;-64
2023/03/14 10:50:56;;;;;;;9.52;2.75;;;12.20;67.00;;;;;;5078545;28;19912;-61
2023/03/14 10:53:22;;;;;;;9.00;2.17;;;12.20;66.70;;;;;;5085533;28;20114;-62
2023/03/14 10:55:49;;;;;;;8.73;1.98;;;12.20;66.70;;;;;;5064646;28;20066;-63
2023/03/14 10:58:25;;;;;;;9.88;2.22;;;12.20;66.40;;;;;;5067480;28;20032;-62
2023/03/14 11:01:08;;;;;;;11.77;2.45;;;12.20;66.10;;;;;;5086423;28;20439;-63
2023/03/14 11:03:36;;;;;;;9.68;1.70;;;12.20;66.10;;;;;;5082051;28;20035;-63
2023/03/14 11:06:28;;;;;;;10.02;2.42;;;12.10;66.20;;;;;;5078515;28;20345;-63
2023/03/14 11:09:07;;;;;;;11.82;2.75;;;12.00;66.40;;;;;;5099465;28;20035;-64
2023/03/14 11:11:32;;;;;;;10.52;2.15;;;11.90;66.50;;;;;;5084833;28;20056;-64
2023/03/14 11:14:07;;;;;;;9.88;2.50;;;11.70;66.50;;;;;;5078548;28;20040;-64
2023/03/14 11:16:46;;;;;;;7.60;1.60;;;11.50;66.60;;;;;;5087862;28;20345;-63
2023/03/14 11:19:40;;;;;;;12.43;2.28;;;11.50;67.00;;;;;;5091897;28;20104;-63
2023/03/14 11:22:21;;;;;;;7.72;1.83;;;11.60;67.00;;;;;;5085494;28;20035;-63
2023/03/14 11:25:06;;;;;;;12.93;2.50;;;11.70;67.00;;;;;;5082161;28;20483;-63
2023/03/14 11:27:44;;;;;;;11.38;2.20;;;11.80;66.80;;;;;;5096349;28;20031;-62
2023/03/14 11:30:37;;;;;;;10.93;1.98;;;11.90;66.90;;;;;;5087667;28;20054;-62
2023/03/14 11:33:08;;;;;;;9.15;2.33;;;11.90;66.70;;;;;;5079748;28;20020;-63
2023/03/14 11:35:41;;;;;;;11.63;2.58;;;11.80;66.70;;;;;;5080190;28;20052;-63
2023/03/14 11:38:42;;;;;;;12.73;2.38;;;11.70;66.70;;;;;;5079844;28;20024;-63
2023/03/14 11:41:39;;;;;;;11.18;1.98;;;11.60;66.80;;;;;;5074102;28;20044;-63
2023/03/14 11:44:19;;;;;;;12.05;2.28;;;11.60;66.50;;;;;;5084039;28;20024;-62
2023/03/14 11:46:59;;;;;;;9.95;2.33;;;11.70;66.50;;;;;;5080686;28;20036;-62
2023/03/14 11:49:31;;;;;;;11.38;2.90;;;11.80;66.30;;;;;;5081631;28;20037;-62
2023/03/14 11:52:00;;;;;;;10.07;2.42;;;11.80;66.10;;;;;;5095856;28;20061;-62
2023/03/14 11:54:42;;;;;;;11.15;2.20;;;12.00;65.80;;;;;;5096323;28;20118;-63
2023/03/14 11:57:15;;;;;;;;;;;12.00;65.30;;;;;;5093493;28;20031;-62
2023/03/14 11:59:46;;;;;;;11.05;2.28;;;12.20;65.40;;;;;;5073403;28;20017;-63
2023/03/14 12:02:40;;;;;;;9.40;2.27;;;12.30;64.90;;;;;;5095033;28;20056;-63
2023/03/14 12:05:29;;;;;;;11.82;2.58;;;12.50;64.10;;;;;;5089599;28;20016;-62
2023/03/14 12:07:55;;;;;;;10.73;2.03;;;12.80;63.30;;;;;;5083069;28;20039;-62
2023/03/14 12:10:21;;;;;;;7.15;2.20;;;12.90;63.00;;;;;;5094300;28;20032;-62
2023/03/14 12:12:47;;;;;;;11.88;2.58;;;13.10;62.40;;;;;;5095804;28;20434;-62
2023/03/14 12:15:21;;;;;;;13.75;2.92;;;13.10;61.80;;;;;;5096133;28;20036;-63
2023/03/14 12:17:55;;;;;;;8.93;2.30;;;13.10;61.40;;;;;;5096002;28;20020;-62
2023/03/14 12:20:24;;;;;;;9.63;2.47;;;13.10;60.90;;;;;;5089140;28;20024;-62
2023/03/14 12:22:54;;;;;;;10.13;2.10;;;13.10;60.80;;;;;;5104370;28;20052;-65
2023/03/14 12:25:26;;;;;;;8.57;1.58;;;13.20;60.80;;;;;;5085003;28;20028;-62
2023/03/14 12:27:54;;;;;;;10.93;2.17;;;13.30;60.00;;;;;;5096142;28;20095;-63
2023/03/14 12:30:27;;;;;;;7.25;1.75;;;13.30;59.60;;;;;;5094516;28;20495;-62
2023/03/14 12:33:18;;;;;;;8.55;1.88;;;13.20;58.70;;;;;;5083499;28;20429;-62
2023/03/14 12:35:49;;;;;;;9.50;2.43;;;13.10;58.00;;;;;;5095981;28;20050;-62
2023/03/14 12:38:17;;;;;;;10.18;1.92;;;13.10;58.00;;;;;;5111503;28;20051;-62
2023/03/14 12:41:02;;;;;;;7.00;1.90;;;13.10;57.50;;;;;;5094492;28;20016;-62
2023/03/14 12:43:31;;;;;;;8.70;1.70;;;13.10;56.30;;;;;;5094667;28;20059;-62
2023/03/14 12:46:18;;;;;;;7.78;1.48;;;13.10;55.90;;;;;;5095823;28;20074;-63
2023/03/14 12:48:49;;;;;;;6.35;1.48;;;13.10;55.30;;;;;;5094487;28;20052;-63
2023/03/14 12:51:37;;;;;;;6.40;1.48;;;13.20;55.20;;;;;;5088771;28;20020;-63
2023/03/14 12:54:30;;;;;;;7.85;1.25;;;13.10;55.00;;;;;;5084560;28;20404;-63
2023/03/14 12:57:26;;;;;;;7.28;1.50;;;13.10;53.90;;;;;;5095555;28;20098;-62
2023/03/14 13:00:12;;;;;;;8.35;1.70;;;13.10;53.70;;;;;;5094347;28;20478;-62
2023/03/14 13:02:45;;;;;;;8.40;2.08;;;13.00;53.40;;;;;;5089450;28;20104;-62
2023/03/14 13:05:23;;;;;;;6.88;1.50;;;12.90;53.10;;;;;;5095282;28;20425;-63
2023/03/14 13:07:49;;;;;;;7.65;1.92;;;12.80;53.20;;;;;;5095024;28;20055;-63